El Galpon, Argentina
Current Conditions -  °F | °C
As of 1:00 AM on Wednesday 22 Oct 2014 (Local Time) from SASA Reporting Station
Clear Clear  
Wind Chill: 63°   Ceiling: Unl
Heat Index: 63°   Visibility: 6mi
Dew Point: 57°   Wind: 2mph
Humidity: 82%   Direction: 20°NNE
Pressure: 30.15"   Gusts: NA
Location:  25.38°S, 64.63°W
Report Text: SASA 220400Z 02002KT CAVOK 17/14 Q1021
Loading
Personal Weather Stations






























Interactive Weather Map New forecast layout! Learn more

10-Day Weather Forecast

Advertisements
Track Severe Weather on mobile